ZMUB/ULN METAR and TAF weather

Enter ICAO airport designator
Station Type Date Time Source
ZMUB METAR 2022/01/26 14:00 UTC NOAA

ZMUB 261400Z VRB01MPS CAVOK M29/M33 Q1025 NOSIG RMK QFE660.9 69


Station Type Date Time Source
ZMUB Decoded METAR 2022/01/26 14:00 UTC NOAA

Ulan-Bator, Mongolia (ZMUB) 47-51N 106-46E
Jan 26, 2022 - 09:00 AM EST / 2022.01.26 1400 UTC
Wind: Variable at 2 MPH (2 KT):0
Visibility: greater than 7 mile(s):0
Temperature: -20 F (-29 C)
Dew Point: -27 F (-33 C)
Relative Humidity: 68%
Pressure (altimeter): 30.27 in. Hg (1025 hPa)
ob: ZMUB 261400Z VRB01MPS CAVOK M29/M33 Q1025 NOSIG RMK QFE660.9 69
cycle: 14

Station Type Date Time Source
ZMUB TAF 2022/01/26 12:42 UTC NOAA

TAF TAF ZMUB 261037Z 2612/2718 VRB02MPS 6000 SCT100 TNM33/2623Z TXM15/2707Z

Example: see airport list